Time;durP1;ratioP1;P1;durP2;ratioP2;P2;SDS_P1;SDS_P2;PMS_P1;PMS_P2;Temp;Humidity;BMP_temperature;BMP_pressure;BME280_temperature;BME280_humidity;BME280_pressure;Samples;Min_cycle;Max_cycle;Signal;HPM_P1;HPM_P2
2023/04/10 00:02:26;;;;;;;0.60;0.60;;;;;;;3.96;79.02;98303.53;5063795;28;20107;-71
2023/04/10 00:04:54;;;;;;;0.40;0.40;;;;;;;3.84;81.19;98301.97;5065516;28;20411;-71
2023/04/10 00:07:21;;;;;;;0.55;0.55;;;;;;;3.74;82.51;98305.59;5064492;28;20132;-71
2023/04/10 00:09:49;;;;;;;0.50;0.50;;;;;;;3.71;83.03;98296.13;5064503;28;20048;-71
2023/04/10 00:12:18;;;;;;;0.40;0.40;;;;;;;3.79;82.95;98298.09;5063650;28;20048;-71
2023/04/10 00:14:46;;;;;;;0.47;0.47;;;;;;;3.81;81.06;98296.16;5064505;28;20070;-71
2023/04/10 00:17:14;;;;;;;0.43;0.43;;;;;;;3.68;81.42;98291.94;5064190;28;20094;-72
2023/04/10 00:19:42;;;;;;;0.65;0.65;;;;;;;3.67;81.88;98300.81;5062761;28;20052;-71
2023/04/10 00:22:09;;;;;;;0.52;0.52;;;;;;;3.63;81.92;98304.69;5065573;28;20056;-71
2023/04/10 00:24:37;;;;;;;0.47;0.47;;;;;;;3.68;81.44;98293.75;5062960;28;20044;-72
2023/04/10 00:27:05;;;;;;;0.50;0.50;;;;;;;3.69;80.86;98295.41;5065711;28;20068;-71
2023/04/10 00:29:32;;;;;;;0.50;0.50;;;;;;;3.64;80.83;98292.34;5045219;28;20048;-72
2023/04/10 00:32:00;;;;;;;0.50;0.50;;;;;;;3.62;81.57;98287.22;5060778;28;20043;-71
2023/04/10 00:34:29;;;;;;;0.60;0.60;;;;;;;3.67;80.83;98285.00;5065831;28;20076;-72
2023/04/10 00:36:56;;;;;;;0.60;0.60;;;;;;;3.62;81.72;98284.56;5042465;28;20111;-71
2023/04/10 00:39:24;;;;;;;0.65;0.50;;;;;;;3.64;81.15;98287.06;5058534;28;20041;-72
2023/04/10 00:41:52;;;;;;;0.50;0.50;;;;;;;3.83;79.87;98281.84;5061779;28;20049;-72
2023/04/10 00:44:19;;;;;;;0.50;0.50;;;;;;;3.73;80.98;98278.34;5066616;28;20045;-72
2023/04/10 00:46:47;;;;;;;0.60;0.60;;;;;;;3.78;80.18;98272.66;5060557;28;20047;-71
2023/04/10 00:49:17;;;;;;;0.43;0.43;;;;;;;3.83;79.72;98271.28;5048811;28;20073;-72
2023/04/10 00:51:47;;;;;;;0.50;0.50;;;;;;;3.82;79.61;98271.44;5061083;28;20052;-72
2023/04/10 00:54:15;;;;;;;0.63;0.63;;;;;;;3.48;80.96;98270.91;5055645;28;20037;-72
2023/04/10 00:56:42;;;;;;;0.60;0.60;;;;;;;3.63;80.32;98280.13;5048219;28;20056;-71
2023/04/10 00:59:10;;;;;;;0.52;0.52;;;;;;;3.75;79.96;98281.66;5060055;28;20381;-71
2023/04/10 01:01:38;;;;;;;0.45;0.45;;;;;;;3.81;78.96;98273.22;5067051;28;20055;-72
2023/04/10 01:04:05;;;;;;;0.55;0.55;;;;;;;3.54;79.74;98267.72;5045924;28;20044;-71
2023/04/10 01:06:44;;;;;;;0.77;0.77;;;;;;;3.37;80.20;98265.72;5049567;28;20036;-72
2023/04/10 01:09:17;;;;;;;0.43;0.43;;;;;;;3.39;80.42;98269.06;5047309;28;20377;-72
2023/04/10 01:11:51;;;;;;;0.50;0.50;;;;;;;3.25;80.75;98271.09;5062690;28;20041;-71
2023/04/10 01:14:26;;;;;;;0.70;0.70;;;;;;;3.28;80.72;98270.81;5058889;23;20507;-73
2023/04/10 01:16:58;;;;;;;0.73;0.73;;;;;;;3.21;81.00;98274.97;5022449;28;20120;-73
2023/04/10 01:19:36;;;;;;;0.60;0.60;;;;;;;3.18;80.40;98275.22;5043912;28;20073;-73
2023/04/10 01:22:09;;;;;;;0.73;0.73;;;;;;;3.12;81.27;98273.09;5034869;28;20094;-74
2023/04/10 01:24:50;;;;;;;0.70;0.70;;;;;;;3.11;81.52;98271.44;5033091;28;20109;-72
2023/04/10 01:27:30;;;;;;;0.65;0.65;;;;;;;3.13;81.73;98274.78;5065806;28;20036;-73
2023/04/10 01:30:01;;;;;;;0.40;0.40;;;;;;;3.04;81.31;98277.34;5040441;28;20102;-73
2023/04/10 01:32:34;;;;;;;0.63;0.63;;;;;;;3.08;80.95;98268.22;5050251;28;20044;-73
2023/04/10 01:35:06;;;;;;;1.10;1.10;;;;;;;3.03;81.20;98276.53;5045395;28;20469;-73
2023/04/10 01:37:37;;;;;;;0.73;0.73;;;;;;;3.07;80.40;98271.84;5042839;28;20053;-73
2023/04/10 01:40:09;;;;;;;0.43;0.43;;;;;;;2.86;81.27;98277.13;5067614;28;20123;-73
2023/04/10 01:42:40;;;;;;;1.05;1.05;;;;;;;3.02;80.58;98282.75;5043231;28;20423;-73
2023/04/10 01:45:17;;;;;;;0.80;0.80;;;;;;;3.03;80.44;98284.44;5045844;28;20055;-73
2023/04/10 01:47:48;;;;;;;1.33;1.33;;;;;;;3.17;80.06;98292.00;5045851;28;20791;-73
2023/04/10 01:50:16;;;;;;;0.60;0.60;;;;;;;2.95;80.55;98281.63;5044593;28;20082;-73
2023/04/10 01:52:44;;;;;;;0.90;0.90;;;;;;;2.92;80.74;98279.22;5044114;28;20064;-73
2023/04/10 01:55:19;;;;;;;0.63;0.63;;;;;;;2.91;80.21;98272.28;5043680;28;20052;-73
2023/04/10 01:57:53;;;;;;;0.60;0.60;;;;;;;2.81;80.78;98276.66;5040725;28;20033;-73
2023/04/10 02:00:23;;;;;;;0.60;0.60;;;;;;;3.00;80.06;98268.06;5044288;28;20044;-73
2023/04/10 02:02:51;;;;;;;0.63;0.63;;;;;;;2.92;79.83;98272.16;5033258;28;20044;-73
2023/04/10 02:05:19;;;;;;;0.60;0.60;;;;;;;2.61;81.66;98280.13;5044684;28;20040;-73
2023/04/10 02:07:52;;;;;;;0.50;0.50;;;;;;;2.65;81.57;98269.22;5044438;28;20051;-73
2023/04/10 02:10:24;;;;;;;0.93;0.93;;;;;;;2.88;79.53;98268.13;5065743;28;20495;-73
2023/04/10 02:12:55;;;;;;;0.90;0.90;;;;;;;2.59;81.12;98269.75;5043196;28;20048;-73
2023/04/10 02:15:26;;;;;;;0.75;0.75;;;;;;;2.39;81.56;98271.38;5045797;28;20053;-73
2023/04/10 02:17:54;;;;;;;1.63;1.63;;;;;;;2.31;82.11;98270.34;5046310;28;20289;-73
2023/04/10 02:20:23;;;;;;;0.50;0.50;;;;;;;2.34;81.58;98262.19;5063816;28;20045;-73
2023/04/10 02:22:52;;;;;;;0.60;0.60;;;;;;;2.19;82.49;98267.75;5059832;28;20052;-73
2023/04/10 02:25:19;;;;;;;0.50;0.50;;;;;;;2.13;83.43;98268.25;5041150;28;20454;-73
2023/04/10 02:27:48;;;;;;;0.60;0.60;;;;;;;2.26;82.74;98268.09;5055528;28;20045;-73
2023/04/10 02:30:16;;;;;;;1.10;0.63;;;;;;;2.32;82.78;98274.66;5066382;28;20095;-73
2023/04/10 02:32:45;;;;;;;0.73;0.73;;;;;;;2.44;82.74;98273.63;5043099;28;20045;-73
2023/04/10 02:35:13;;;;;;;0.60;0.60;;;;;;;2.45;81.80;98270.88;5049403;28;20071;-73
2023/04/10 02:37:41;;;;;;;0.60;0.60;;;;;;;2.48;81.96;98272.44;5073728;28;20052;-73
2023/04/10 02:40:10;;;;;;;0.73;0.73;;;;;;;2.57;80.99;98272.50;5055203;28;20087;-73
2023/04/10 02:42:47;;;;;;;0.63;0.63;;;;;;;2.56;81.07;98264.72;5043513;28;20499;-73
2023/04/10 02:45:14;;;;;;;0.70;0.70;;;;;;;2.61;80.46;98274.88;5041390;28;20059;-73
2023/04/10 02:47:43;;;;;;;0.77;0.77;;;;;;;2.63;80.51;98283.47;5044517;28;20041;-73
2023/04/10 02:50:12;;;;;;;0.70;0.70;;;;;;;2.38;81.64;98280.25;5048300;28;20135;-73
2023/04/10 02:52:43;;;;;;;0.73;0.73;;;;;;;2.35;81.90;98275.25;5044939;28;20049;-73
2023/04/10 02:55:11;;;;;;;0.80;0.80;;;;;;;2.42;81.05;98280.81;5069245;28;20392;-73
2023/04/10 02:57:41;;;;;;;0.60;0.60;;;;;;;2.48;80.92;98282.97;5064484;28;20523;-73
2023/04/10 03:00:10;;;;;;;0.75;0.75;;;;;;;2.48;80.95;98277.69;5048095;28;20044;-73
2023/04/10 03:03:01;;;;;;;0.90;0.90;;;;;;;2.50;80.64;98275.75;5041935;28;20048;-73
2023/04/10 03:05:38;;;;;;;0.93;0.93;;;;;;;2.46;81.00;98277.81;5047800;28;20400;-73
2023/04/10 03:08:06;;;;;;;0.65;0.65;;;;;;;2.46;80.95;98277.81;5039289;28;20046;-73
2023/04/10 03:10:33;;;;;;;0.70;0.70;;;;;;;2.40;81.71;98278.31;5046970;28;20507;-73
2023/04/10 03:13:01;;;;;;;0.70;0.70;;;;;;;2.49;80.85;98269.66;5046665;28;20041;-73
2023/04/10 03:15:29;;;;;;;0.63;0.63;;;;;;;2.52;80.67;98274.66;5051334;28;20041;-73
2023/04/10 03:17:59;;;;;;;0.90;0.80;;;;;;;2.56;80.53;98270.84;5067537;28;20556;-73
2023/04/10 03:20:27;;;;;;;0.60;0.60;;;;;;;2.57;80.15;98269.88;5070148;28;20045;-73
2023/04/10 03:22:55;;;;;;;0.73;0.73;;;;;;;2.35;80.92;98275.25;5048975;28;20049;-73
2023/04/10 03:25:27;;;;;;;0.60;0.60;;;;;;;2.44;80.47;98266.56;5044083;28;20088;-73
2023/04/10 03:27:55;;;;;;;0.60;0.60;;;;;;;2.63;79.98;98272.94;5038289;28;20132;-73
2023/04/10 03:30:23;;;;;;;0.52;0.52;;;;;;;2.63;79.62;98275.56;5044278;28;20411;-73
2023/04/10 03:32:50;;;;;;;0.63;0.63;;;;;;;2.63;79.48;98273.78;5044209;28;20040;-72
2023/04/10 03:35:18;;;;;;;0.70;0.70;;;;;;;2.49;79.42;98280.19;5043859;28;20041;-73
2023/04/10 03:37:46;;;;;;;0.70;0.70;;;;;;;2.52;78.82;98276.47;5072666;28;20079;-73
2023/04/10 03:40:15;;;;;;;0.55;0.55;;;;;;;2.06;80.66;98279.44;5046215;28;20053;-73
2023/04/10 03:42:43;;;;;;;1.15;0.60;;;;;;;2.13;80.27;98275.31;5046163;28;20055;-74
2023/04/10 03:45:12;;;;;;;0.60;0.60;;;;;;;2.00;81.29;98272.00;5048485;28;20108;-73
2023/04/10 03:47:39;;;;;;;0.50;0.50;;;;;;;1.80;82.00;98273.63;5046568;28;20052;-72
2023/04/10 03:50:10;;;;;;;0.70;0.70;;;;;;;1.67;83.11;98278.19;5049785;28;20041;-72
2023/04/10 03:52:48;;;;;;;0.70;0.70;;;;;;;1.67;82.61;98268.50;5043911;28;20057;-72
2023/04/10 03:55:18;;;;;;;0.93;0.93;;;;;;;1.64;82.73;98267.91;5042046;28;20045;-72
2023/04/10 03:57:48;;;;;;;0.63;0.63;;;;;;;1.63;82.94;98272.34;5046592;28;20041;-72
2023/04/10 04:00:20;;;;;;;0.75;0.75;;;;;;;1.55;83.60;98272.13;5046875;28;20044;-72
2023/04/10 04:02:49;;;;;;;0.50;0.50;;;;;;;1.50;83.65;98271.63;5068932;28;20044;-72
2023/04/10 04:05:51;;;;;;;1.27;1.27;;;;;;;1.59;83.00;98273.53;5044717;28;20412;-72
2023/04/10 04:08:30;;;;;;;0.65;0.65;;;;;;;1.56;83.33;98275.59;5047243;28;20048;-72
2023/04/10 04:11:17;;;;;;;0.65;0.65;;;;;;;1.41;84.14;98277.63;5058224;28;20048;-72
2023/04/10 04:13:56;;;;;;;0.70;0.70;;;;;;;1.63;82.80;98282.88;5037324;28;20060;-72
2023/04/10 04:16:46;;;;;;;0.60;0.60;;;;;;;1.80;82.23;98278.88;5034810;28;20056;-71
2023/04/10 04:19:33;;;;;;;0.60;0.60;;;;;;;1.72;82.59;98281.28;5067943;28;20040;-72
2023/04/10 04:22:07;;;;;;;0.70;0.70;;;;;;;1.90;82.31;98276.34;5066753;28;20445;-72
2023/04/10 04:24:53;;;;;;;0.80;0.80;;;;;;;1.87;82.14;98279.25;5069343;28;20040;-72
2023/04/10 04:27:48;;;;;;;1.10;1.10;;;;;;;1.86;82.94;98274.94;5043237;28;20423;-72
2023/04/10 04:30:36;;;;;;;0.60;0.60;;;;;;;1.97;82.04;98277.53;5067763;28;20148;-72
2023/04/10 04:33:17;;;;;;;0.70;0.70;;;;;;;1.89;82.69;98278.13;5042824;28;20546;-72
2023/04/10 04:35:56;;;;;;;0.60;0.60;;;;;;;1.98;82.62;98287.91;5035998;28;20514;-72
2023/04/10 04:38:42;;;;;;;0.80;0.80;;;;;;;2.20;81.96;98292.28;5042671;28;20126;-72
2023/04/10 04:41:31;;;;;;;0.60;0.60;;;;;;;1.99;82.09;98299.28;5025846;28;20056;-74
2023/04/10 04:44:23;;;;;;;0.70;0.70;;;;;;;2.05;81.46;98304.06;5054631;28;20053;-72
2023/04/10 04:47:01;;;;;;;0.75;0.75;;;;;;;1.90;83.44;98300.88;5035856;28;20077;-73
2023/04/10 04:49:44;;;;;;;0.82;0.70;;;;;;;2.01;82.50;98300.84;5050659;28;20053;-72
2023/04/10 04:52:43;;;;;;;0.70;0.70;;;;;;;1.95;82.50;98303.16;5043493;28;20381;-72
2023/04/10 04:55:21;;;;;;;0.85;0.85;;;;;;;1.90;82.87;98297.41;5043906;28;20388;-72
2023/04/10 04:58:17;;;;;;;0.70;0.70;;;;;;;2.04;82.04;98305.88;5045046;28;20048;-72
2023/04/10 05:01:11;;;;;;;0.80;0.80;;;;;;;2.12;81.97;98294.72;5041387;28;20037;-72
2023/04/10 05:03:54;;;;;;;0.73;0.73;;;;;;;2.14;81.87;98298.06;5037995;28;20084;-72
2023/04/10 05:06:46;;;;;;;0.70;0.70;;;;;;;2.09;82.20;98294.94;5070702;28;20067;-72
2023/04/10 05:09:22;;;;;;;0.65;0.65;;;;;;;1.99;82.73;98296.66;5043159;28;20045;-71
2023/04/10 05:12:10;;;;;;;0.70;0.70;;;;;;;2.01;82.81;98295.59;5035112;28;20063;-72
2023/04/10 05:14:58;;;;;;;0.57;0.57;;;;;;;2.18;81.71;98294.22;5042151;28;20071;-72
2023/04/10 05:17:37;;;;;;;0.63;0.63;;;;;;;2.42;80.54;98297.47;5044045;28;20055;-72
2023/04/10 05:20:15;;;;;;;0.95;0.82;;;;;;;2.50;80.66;98287.13;5045724;28;20131;-72
2023/04/10 05:23:01;;;;;;;1.00;0.70;;;;;;;2.24;80.93;98293.72;5048483;28;20131;-72
2023/04/10 05:25:36;;;;;;;0.70;0.70;;;;;;;2.10;81.57;98299.25;5045005;28;20048;-72
2023/04/10 05:28:23;;;;;;;0.70;0.70;;;;;;;2.22;81.70;98296.47;5043426;28;20524;-72
2023/04/10 05:31:00;;;;;;;0.80;0.80;;;;;;;2.25;81.72;98300.66;5042253;28;20049;-72
2023/04/10 05:33:51;;;;;;;0.70;0.70;;;;;;;2.40;81.56;98299.38;5047089;28;20045;-72
2023/04/10 05:36:37;;;;;;;0.60;0.60;;;;;;;2.14;82.52;98295.44;5071076;28;20056;-72
2023/04/10 05:39:24;;;;;;;0.60;0.60;;;;;;;2.11;82.73;98293.88;5045649;28;20058;-72
2023/04/10 05:42:24;;;;;;;0.65;0.65;;;;;;;2.05;82.62;98293.53;5005668;28;20044;-72
2023/04/10 05:45:10;;;;;;;0.70;0.70;;;;;;;2.14;82.95;98296.25;5058630;28;20531;-72
2023/04/10 05:47:52;;;;;;;0.70;0.70;;;;;;;2.29;83.16;98301.22;5044944;28;20037;-71
2023/04/10 05:50:28;;;;;;;0.77;0.77;;;;;;;2.40;83.01;98293.28;5044174;28;20033;-71
2023/04/10 05:53:19;;;;;;;0.82;0.82;;;;;;;2.31;83.62;98288.78;5066115;28;20102;-72
2023/04/10 05:56:15;;;;;;;0.70;0.70;;;;;;;2.48;83.29;98291.72;5050909;28;20388;-72
2023/04/10 05:59:06;;;;;;;0.70;0.70;;;;;;;2.54;83.02;98290.34;5039059;28;20053;-72
2023/04/10 06:01:52;;;;;;;0.82;0.82;;;;;;;2.54;83.12;98290.34;5056023;28;20585;-72
2023/04/10 06:04:21;;;;;;;0.75;0.75;;;;;;;2.65;83.10;98289.47;5030357;28;20053;-72
2023/04/10 06:06:54;;;;;;;0.50;0.50;;;;;;;2.73;83.08;98287.84;5065580;28;20049;-72
2023/04/10 06:09:21;;;;;;;0.60;0.60;;;;;;;2.90;82.93;98292.56;5035887;28;20053;-71
2023/04/10 06:11:49;;;;;;;0.68;0.68;;;;;;;3.15;81.64;98283.38;5036711;28;20515;-71
2023/04/10 06:14:20;;;;;;;0.80;0.80;;;;;;;3.11;81.63;98282.00;5043091;28;20094;-72
2023/04/10 06:16:48;;;;;;;0.80;0.80;;;;;;;3.12;82.51;98285.44;5043950;28;20561;-72
2023/04/10 06:19:16;;;;;;;0.70;0.70;;;;;;;3.09;84.21;98281.28;5044723;28;20049;-72
2023/04/10 06:21:43;;;;;;;0.70;0.70;;;;;;;3.27;83.99;98278.88;5063562;28;20051;-72
2023/04/10 06:24:14;;;;;;;0.50;0.50;;;;;;;3.41;84.10;98275.06;5069763;28;20051;-72
2023/04/10 06:26:46;;;;;;;0.50;0.50;;;;;;;3.56;83.92;98279.81;5043678;28;20063;-72
2023/04/10 06:29:14;;;;;;;0.80;0.80;;;;;;;3.69;83.88;98284.88;5044131;28;20041;-72
2023/04/10 06:31:41;;;;;;;1.25;0.70;;;;;;;3.76;83.69;98283.34;5043068;28;20037;-72
2023/04/10 06:34:09;;;;;;;0.63;0.63;;;;;;;3.93;83.37;98284.50;5044313;28;20044;-72
2023/04/10 06:36:38;;;;;;;0.60;0.60;;;;;;;4.13;82.85;98272.16;5042804;28;20037;-72
2023/04/10 06:39:06;;;;;;;0.90;0.90;;;;;;;4.28;82.13;98286.63;5038780;28;20067;-72
2023/04/10 06:41:35;;;;;;;0.60;0.60;;;;;;;4.41;81.83;98280.09;5045731;28;20483;-72
2023/04/10 06:44:28;;;;;;;0.60;0.60;;;;;;;4.56;81.49;98275.25;5045419;28;20475;-72
2023/04/10 06:46:56;;;;;;;0.70;0.70;;;;;;;4.72;81.34;98269.38;5064600;28;20048;-72
2023/04/10 06:49:24;;;;;;;0.55;0.55;;;;;;;4.82;81.10;98270.19;5066339;28;20083;-72
2023/04/10 06:51:51;;;;;;;0.80;0.80;;;;;;;4.95;81.12;98262.81;5061439;28;20503;-72
2023/04/10 06:54:19;;;;;;;1.50;1.50;;;;;;;5.09;80.63;98258.84;5059322;28;20403;-72
2023/04/10 06:56:48;;;;;;;0.55;0.55;;;;;;;5.14;80.30;98260.09;5067482;28;20052;-72
2023/04/10 06:59:15;;;;;;;0.65;0.65;;;;;;;5.22;80.28;98256.72;5060471;28;20099;-72
2023/04/10 07:01:43;;;;;;;0.68;0.68;;;;;;;5.34;80.05;98268.81;5068174;28;20548;-72
2023/04/10 07:04:10;;;;;;;0.60;0.60;;;;;;;5.44;80.02;98261.66;5066503;28;20041;-72
2023/04/10 07:06:38;;;;;;;0.73;0.73;;;;;;;5.39;80.34;98261.28;5071987;28;20118;-73
2023/04/10 07:09:06;;;;;;;0.63;0.63;;;;;;;5.56;79.99;98256.19;5069029;28;20048;-72
2023/04/10 07:11:33;;;;;;;0.85;0.85;;;;;;;5.65;80.25;98256.13;5063636;28;20045;-74
2023/04/10 07:14:05;;;;;;;0.70;0.70;;;;;;;5.82;79.98;98247.38;5071259;28;20045;-75
2023/04/10 07:16:33;;;;;;;0.75;0.75;;;;;;;5.99;79.83;98252.91;5064097;28;20045;-75
2023/04/10 07:19:00;;;;;;;0.50;0.50;;;;;;;6.16;79.60;98249.41;5072716;28;20036;-75
2023/04/10 07:21:28;;;;;;;0.85;0.85;;;;;;;6.29;79.15;98251.72;5064162;28;20060;-75
2023/04/10 07:23:55;;;;;;;0.60;0.60;;;;;;;6.40;79.19;98254.13;5073526;28;20048;-75
2023/04/10 07:26:24;;;;;;;0.57;0.57;;;;;;;6.52;78.72;98255.56;5065450;28;20045;-74
2023/04/10 07:28:51;;;;;;;0.60;0.60;;;;;;;6.60;78.37;98247.69;5049361;28;20063;-75
2023/04/10 07:31:21;;;;;;;0.57;0.57;;;;;;;6.75;78.00;98255.94;5065736;28;20036;-75
2023/04/10 07:33:48;;;;;;;0.70;0.70;;;;;;;6.82;77.77;98256.97;5066349;28;20052;-75
2023/04/10 07:36:16;;;;;;;0.60;0.60;;;;;;;6.95;77.37;98258.25;5070881;28;20041;-75
2023/04/10 07:38:44;;;;;;;0.60;0.60;;;;;;;7.09;76.52;98250.66;5066753;28;20604;-75
2023/04/10 07:41:11;;;;;;;0.60;0.60;;;;;;;7.24;76.14;98249.94;5068769;28;20040;-75
2023/04/10 07:43:39;;;;;;;0.40;0.40;;;;;;;7.45;75.11;98243.41;5065573;28;20099;-75
2023/04/10 07:46:07;;;;;;;0.52;0.52;;;;;;;7.60;74.68;98247.13;5069963;28;20577;-75
2023/04/10 07:48:36;;;;;;;0.57;0.57;;;;;;;7.99;72.15;98250.09;5059093;28;20107;-75
2023/04/10 07:51:04;;;;;;;0.52;0.52;;;;;;;8.23;70.52;98251.97;5070681;28;20458;-72
2023/04/10 07:53:31;;;;;;;0.63;0.63;;;;;;;8.37;69.08;98254.84;5067506;28;20396;-75
2023/04/10 07:56:00;;;;;;;0.45;0.45;;;;;;;8.47;69.23;98246.72;5064107;28;20037;-74
2023/04/10 07:58:27;;;;;;;0.50;0.50;;;;;;;8.60;69.29;98244.41;5069548;28;20690;-74
2023/04/10 08:00:55;;;;;;;0.60;0.60;;;;;;;8.77;69.32;98246.06;5065468;28;20049;-74
2023/04/10 08:03:23;;;;;;;0.63;0.63;;;;;;;8.86;68.21;98240.72;5069545;28;20071;-75
2023/04/10 08:05:52;;;;;;;0.40;0.40;;;;;;;8.94;67.38;98240.72;5066354;28;20487;-74
2023/04/10 08:08:19;;;;;;;0.40;0.40;;;;;;;9.05;67.17;98243.84;5070463;28;20045;-74
2023/04/10 08:10:47;;;;;;;0.30;0.30;;;;;;;9.09;65.89;98234.53;5065587;28;20076;-74
2023/04/10 08:13:15;;;;;;;0.50;0.50;;;;;;;9.18;66.65;98235.34;5065913;28;20044;-74
2023/04/10 08:15:42;;;;;;;0.55;0.55;;;;;;;9.33;67.13;98238.16;5066821;28;20071;-75
2023/04/10 08:18:10;;;;;;;0.45;0.45;;;;;;;9.45;65.02;98234.09;5065764;28;20079;-74
2023/04/10 08:20:38;;;;;;;0.90;0.90;;;;;;;9.49;63.29;98230.94;5068968;28;20360;-74
2023/04/10 08:23:07;;;;;;;0.52;0.52;;;;;;;9.50;63.65;98229.09;5066352;28;20082;-74
2023/04/10 08:25:47;;;;;;;0.32;0.32;;;;;;;9.45;63.31;98229.59;5069535;28;20048;-75
2023/04/10 08:28:14;;;;;;;0.50;0.50;;;;;;;9.47;63.28;98218.78;5056292;28;20064;-74
2023/04/10 08:30:42;;;;;;;0.50;0.50;;;;;;;9.46;64.01;98211.78;5069583;28;20102;-74
2023/04/10 08:33:09;;;;;;;0.45;0.45;;;;;;;9.46;62.90;98217.94;5063745;28;20120;-75
2023/04/10 08:35:37;;;;;;;0.43;0.43;;;;;;;9.52;63.59;98213.78;5069127;28;20411;-75
2023/04/10 08:38:04;;;;;;;0.40;0.40;;;;;;;9.66;63.73;98212.19;5062236;28;20041;-74
2023/04/10 08:40:43;;;;;;;0.50;0.50;;;;;;;9.85;63.81;98209.13;5064172;28;20041;-74
2023/04/10 08:43:11;;;;;;;0.40;0.40;;;;;;;9.96;62.71;98207.91;5065180;28;20090;-75
2023/04/10 08:45:40;;;;;;;0.50;0.50;;;;;;;9.97;62.71;98205.03;5066835;28;20561;-74
2023/04/10 08:48:08;;;;;;;0.43;0.40;;;;;;;9.99;62.44;98207.53;5066091;28;20044;-74
2023/04/10 08:50:41;;;;;;;0.50;0.50;;;;;;;10.06;61.79;98206.69;5068659;28;20558;-74
2023/04/10 08:53:11;;;;;;;0.30;0.30;;;;;;;10.07;62.40;98199.50;5066816;28;20044;-74
2023/04/10 08:55:39;;;;;;;0.40;0.40;;;;;;;10.06;62.11;98198.69;5061618;28;20045;-74
2023/04/10 08:58:09;;;;;;;0.22;0.22;;;;;;;9.98;62.19;98200.53;5067736;28;20094;-74
2023/04/10 09:00:37;;;;;;;0.30;0.30;;;;;;;10.02;62.09;98192.03;5065098;28;20113;-74
2023/04/10 09:03:07;;;;;;;0.30;0.30;;;;;;;10.12;61.93;98195.28;5045787;28;20045;-74
2023/04/10 09:05:35;;;;;;;0.40;0.40;;;;;;;10.10;61.73;98175.97;5065290;28;20135;-74
2023/04/10 09:08:03;;;;;;;0.40;0.40;;;;;;;10.13;61.61;98188.97;5069278;28;20044;-74
2023/04/10 09:10:30;;;;;;;0.40;0.40;;;;;;;10.27;61.47;98192.75;5067139;28;20045;-74
2023/04/10 09:12:58;;;;;;;0.30;0.30;;;;;;;10.29;61.67;98188.03;5063146;28;20041;-75
2023/04/10 09:15:27;;;;;;;0.40;0.40;;;;;;;10.28;61.53;98186.38;5066941;28;20044;-74
2023/04/10 09:17:59;;;;;;;0.30;0.30;;;;;;;10.30;60.84;98176.34;5061659;28;20036;-75
2023/04/10 09:20:29;;;;;;;;;;;;;;;10.37;61.24;98176.50;5068158;28;20052;-75
2023/04/10 09:22:57;;;;;;;0.40;0.40;;;;;;;10.39;61.09;98172.59;5064881;28;19974;-74
2023/04/10 09:25:32;;;;;;;0.40;0.40;;;;;;;10.49;60.73;98169.69;5067875;28;20403;-75
2023/04/10 09:28:01;;;;;;;0.43;0.43;;;;;;;10.63;60.20;98167.06;5058979;28;20060;-74
2023/04/10 09:30:38;;;;;;;0.35;0.35;;;;;;;10.70;59.87;98158.31;5066240;28;20049;-75
2023/04/10 09:33:21;;;;;;;0.25;0.25;;;;;;;10.66;60.43;98166.72;5063139;28;20032;-74
2023/04/10 09:35:49;;;;;;;0.40;0.40;;;;;;;10.76;60.02;98162.97;5069681;28;20040;-75
2023/04/10 09:38:18;;;;;;;0.40;0.40;;;;;;;10.83;59.92;98162.03;5063396;28;20045;-75
2023/04/10 09:40:46;;;;;;;0.30;0.30;;;;;;;10.99;59.61;98161.06;5066164;28;20052;-74
2023/04/10 09:43:22;;;;;;;0.40;0.40;;;;;;;11.11;58.92;98153.44;5064512;28;20040;-73
2023/04/10 09:45:53;;;;;;;0.40;0.40;;;;;;;11.17;58.31;98147.34;5066851;28;20044;-74
2023/04/10 09:48:21;;;;;;;0.30;0.30;;;;;;;11.33;58.06;98145.28;5065032;28;20094;-73
2023/04/10 09:50:50;;;;;;;0.30;0.30;;;;;;;11.35;57.38;98137.91;5068966;28;20036;-74
2023/04/10 09:53:19;;;;;;;0.30;0.30;;;;;;;11.51;57.03;98136.06;5066252;28;20070;-73
2023/04/10 09:55:48;;;;;;;0.40;0.40;;;;;;;11.51;56.54;98134.22;5061094;28;20113;-73
2023/04/10 09:58:17;;;;;;;0.30;0.30;;;;;;;11.68;55.78;98134.81;5066987;28;20036;-73
2023/04/10 10:00:46;;;;;;;0.20;0.20;;;;;;;11.75;55.59;98127.72;5062662;28;20060;-73
2023/04/10 10:03:16;;;;;;;0.20;0.20;;;;;;;12.05;54.66;98118.56;5067352;28;20051;-73
2023/04/10 10:05:45;;;;;;;0.20;0.20;;;;;;;12.05;53.87;98109.72;5064057;28;20104;-74
2023/04/10 10:08:14;;;;;;;0.30;0.30;;;;;;;12.30;54.09;98111.00;5068372;28;20044;-74
2023/04/10 10:10:46;;;;;;;0.35;0.35;;;;;;;12.49;53.68;98101.47;5064003;28;20094;-74
2023/04/10 10:13:17;;;;;;;0.20;0.20;;;;;;;12.66;52.88;98092.16;5063840;28;20044;-73
2023/04/10 10:15:47;;;;;;;0.28;0.28;;;;;;;12.96;52.34;98099.94;5064985;28;20041;-74
2023/04/10 10:18:21;;;;;;;0.50;0.50;;;;;;;13.25;52.25;98097.03;5065156;28;20399;-73
2023/04/10 10:20:50;;;;;;;0.22;0.22;;;;;;;13.16;51.20;98100.91;5066518;28;20048;-74
2023/04/10 10:23:19;;;;;;;0.20;0.20;;;;;;;13.39;50.18;98081.84;5065320;28;20040;-74
2023/04/10 10:25:48;;;;;;;0.30;0.30;;;;;;;13.45;50.32;98089.91;5068026;28;20053;-74
2023/04/10 10:28:16;;;;;;;0.20;0.20;;;;;;;13.63;49.42;98085.84;5054880;28;20053;-74
2023/04/10 10:30:44;;;;;;;0.10;0.10;;;;;;;13.75;49.45;98077.00;5067636;28;20094;-74
2023/04/10 10:33:13;;;;;;;0.52;0.52;;;;;;;13.59;49.09;98075.53;5061484;28;20431;-74
2023/04/10 10:35:42;;;;;;;0.28;0.28;;;;;;;13.83;48.43;98070.63;5067735;28;20063;-74
2023/04/10 10:38:10;;;;;;;0.30;0.30;;;;;;;13.69;48.14;98067.09;5065895;28;20044;-74
2023/04/10 10:40:41;;;;;;;0.30;0.30;;;;;;;13.79;48.31;98062.16;5068945;28;20041;-74
2023/04/10 10:43:13;;;;;;;0.22;0.22;;;;;;;13.93;48.34;98052.25;5068236;28;20037;-75
2023/04/10 10:45:44;;;;;;;0.28;0.28;;;;;;;13.83;49.24;98043.78;5069446;28;20053;-75
2023/04/10 10:48:11;;;;;;;0.20;0.20;;;;;;;13.90;48.30;98034.72;5068589;28;20076;-72
2023/04/10 10:50:56;;;;;;;0.28;0.28;;;;;;;13.95;48.25;98036.78;5070826;28;20067;-71
2023/04/10 10:53:34;;;;;;;0.10;0.10;;;;;;;14.13;47.78;98050.41;5068997;28;20495;-75
2023/04/10 10:56:33;;;;;;;0.20;0.20;;;;;;;14.29;47.34;98036.59;5053644;28;20099;-72
2023/04/10 10:59:01;;;;;;;0.30;0.30;;;;;;;14.18;47.13;98045.28;5061324;28;20549;-74
2023/04/10 11:01:29;;;;;;;0.20;0.20;;;;;;;14.33;46.33;98026.25;5072844;28;20122;-74
2023/04/10 11:03:56;;;;;;;0.30;0.30;;;;;;;14.39;46.68;98040.72;5073160;28;20037;-72
2023/04/10 11:06:53;;;;;;;0.20;0.20;;;;;;;14.15;46.16;98040.31;5062086;28;20072;-75
2023/04/10 11:09:47;;;;;;;0.20;0.20;;;;;;;14.50;45.27;98026.69;5063679;28;20052;-74
2023/04/10 11:12:15;;;;;;;0.20;0.20;;;;;;;14.66;45.18;98021.69;5055828;28;20051;-74
2023/04/10 11:14:43;;;;;;;0.20;0.20;;;;;;;14.82;44.75;98023.13;5067870;28;20091;-76
2023/04/10 11:17:11;;;;;;;0.20;0.20;;;;;;;14.79;44.86;98012.78;5066743;28;20138;-75
2023/04/10 11:19:59;;;;;;;0.22;0.22;;;;;;;15.32;43.65;98002.66;5068766;28;20048;-73
2023/04/10 11:22:28;;;;;;;0.20;0.20;;;;;;;15.31;43.25;98006.38;5067402;28;20051;-73
2023/04/10 11:24:58;;;;;;;0.40;0.40;;;;;;;15.47;41.04;98007.72;5055279;28;20055;-73
2023/04/10 11:27:47;;;;;;;0.10;0.10;;;;;;;15.31;41.82;98003.69;5068112;28;20044;-73
2023/04/10 11:30:35;;;;;;;0.30;0.30;;;;;;;15.12;41.27;97993.84;5066960;28;20054;-72
2023/04/10 11:33:04;;;;;;;0.20;0.20;;;;;;;14.98;41.68;98006.50;5061142;28;20091;-72
2023/04/10 11:35:32;;;;;;;0.20;0.20;;;;;;;15.04;42.43;97997.63;5068960;28;20045;-73
2023/04/10 11:38:12;;;;;;;0.17;0.17;;;;;;;15.45;41.47;98004.47;5067592;28;20044;-73
2023/04/10 11:41:00;;;;;;;0.13;0.13;;;;;;;15.40;41.16;98001.56;5066575;28;20577;-73
2023/04/10 11:43:28;;;;;;;0.25;0.25;;;;;;;15.54;40.84;97992.44;5065198;28;20384;-76
2023/04/10 11:46:00;;;;;;;0.30;0.22;;;;;;;15.57;40.64;97992.00;5069937;28;20446;-75
2023/04/10 11:48:28;;;;;;;;;;;;;;;15.84;40.14;97989.94;5066701;28;20048;-72
2023/04/10 11:50:55;;;;;;;0.20;0.20;;;;;;;15.85;39.39;97985.38;5070639;28;19924;-75
2023/04/10 11:53:25;;;;;;;0.13;0.13;;;;;;;15.97;39.13;97964.78;5067772;28;20082;-75
2023/04/10 11:55:53;;;;;;;0.38;0.38;;;;;;;16.12;39.28;97979.56;5062388;28;20492;-74
2023/04/10 11:58:24;;;;;;;0.40;0.40;;;;;;;15.51;39.21;97979.38;5068614;28;20286;-74
2023/04/10 12:00:59;;;;;;;0.25;0.25;;;;;;;15.86;39.74;97978.97;5062443;28;20044;-74
2023/04/10 12:03:34;;;;;;;0.20;0.20;;;;;;;16.09;38.80;97963.84;5069199;28;20040;-75
2023/04/10 12:06:02;;;;;;;0.20;0.20;;;;;;;16.55;38.10;97957.19;5066020;28;20055;-74